createdAt,value
2022-12-04T00:01:18.053Z,17.40
2022-12-04T00:04:19.545Z,17.42
2022-12-04T00:07:20.994Z,18.10
2022-12-04T00:10:22.498Z,17.33
2022-12-04T00:13:23.951Z,18.50
2022-12-04T00:16:27.782Z,18.63
2022-12-04T00:19:29.336Z,18.50
2022-12-04T00:22:30.795Z,17.00
2022-12-04T00:25:36.369Z,17.05
2022-12-04T00:28:41.508Z,18.73
2022-12-04T00:31:43.019Z,19.00
2022-12-04T00:34:44.900Z,18.77
2022-12-04T00:37:46.348Z,17.73
2022-12-04T00:40:54.446Z,18.77
2022-12-04T00:43:55.900Z,18.42
2022-12-04T00:46:57.322Z,17.90
2022-12-04T00:49:58.716Z,18.55
2022-12-04T00:53:00.126Z,19.60
2022-12-04T00:56:11.178Z,18.30
2022-12-04T00:59:12.630Z,18.45
2022-12-04T01:02:14.056Z,19.42
2022-12-04T01:05:15.654Z,18.98
2022-12-04T01:08:17.158Z,19.42
2022-12-04T01:11:20.402Z,18.48
2022-12-04T01:14:21.885Z,19.98
2022-12-04T01:17:23.486Z,19.83
2022-12-04T01:20:25.487Z,19.30
2022-12-04T01:23:26.940Z,19.27
2022-12-04T01:26:28.531Z,18.77
2022-12-04T01:29:30.006Z,18.20
2022-12-04T01:32:31.529Z,20.92
2022-12-04T01:35:32.963Z,19.58
2022-12-04T01:38:35.620Z,19.20
2022-12-04T01:41:37.084Z,18.45
2022-12-04T01:44:44.193Z,19.50
2022-12-04T01:47:46.159Z,19.98
2022-12-04T01:50:51.750Z,19.85
2022-12-04T01:53:57.490Z,20.88
2022-12-04T01:57:04.077Z,20.52
2022-12-04T02:00:10.149Z,19.63
2022-12-04T02:03:13.491Z,20.55
2022-12-04T02:06:14.965Z,18.95
2022-12-04T02:09:20.396Z,21.20
2022-12-04T02:12:45.918Z,21.23
2022-12-04T02:16:09.333Z,20.17
2022-12-04T02:19:29.041Z,19.77
2022-12-04T02:22:59.530Z,19.90
2022-12-04T02:26:25.551Z,20.50
2022-12-04T02:29:40.787Z,20.60
2022-12-04T02:32:46.214Z,19.05
2022-12-04T02:35:54.968Z,20.27
2022-12-04T02:39:13.705Z,18.77
2022-12-04T02:42:44.460Z,20.08
2022-12-04T02:45:51.351Z,18.25
2022-12-04T02:48:57.449Z,21.17
2022-12-04T02:52:00.526Z,18.67
2022-12-04T02:55:10.636Z,19.85
2022-12-04T02:58:20.357Z,20.50
2022-12-04T03:01:29.289Z,21.70
2022-12-04T03:04:31.198Z,21.02
2022-12-04T03:07:49.025Z,20.70
2022-12-04T03:10:54.495Z,18.33
2022-12-04T03:14:06.726Z,21.27
2022-12-04T03:17:16.963Z,20.33
2022-12-04T03:20:20.441Z,20.17
2022-12-04T03:23:32.046Z,19.65
2022-12-04T03:26:38.647Z,20.35
2022-12-04T03:29:50.290Z,20.90
2022-12-04T03:32:58.416Z,20.33
2022-12-04T03:36:08.177Z,21.38
2022-12-04T03:39:18.654Z,17.88
2022-12-04T03:42:25.573Z,20.05
2022-12-04T03:45:35.088Z,21.23
2022-12-04T03:48:47.504Z,19.83
2022-12-04T03:51:57.505Z,21.80
2022-12-04T03:55:08.756Z,18.55
2022-12-04T03:58:16.260Z,20.05
2022-12-04T04:01:22.991Z,20.55
2022-12-04T04:04:32.051Z,19.77
2022-12-04T04:07:41.031Z,19.73
2022-12-04T04:10:43.065Z,21.90
2022-12-04T04:14:11.642Z,19.77
2022-12-04T04:17:16.974Z,21.15
2022-12-04T04:20:26.102Z,19.50
2022-12-04T04:23:31.463Z,21.50
2022-12-04T04:26:38.473Z,18.38
2022-12-04T04:29:41.524Z,19.23
2022-12-04T04:32:49.647Z,21.67
2022-12-04T04:36:05.147Z,19.38
2022-12-04T04:39:19.460Z,20.00
2022-12-04T04:45:36.875Z,19.80
2022-12-04T04:48:46.479Z,21.25
2022-12-04T04:51:48.206Z,19.08
2022-12-04T04:54:49.668Z,20.55
2022-12-04T04:57:51.225Z,22.65
2022-12-04T05:01:04.729Z,20.02
2022-12-04T05:04:07.344Z,22.13
2022-12-04T05:07:08.757Z,21.65
2022-12-04T05:10:10.399Z,22.67
2022-12-04T05:13:13.021Z,21.35
2022-12-04T05:16:15.523Z,22.10
2022-12-04T05:19:16.991Z,21.30
2022-12-04T05:22:32.708Z,21.70
2022-12-04T05:25:34.156Z,21.60
2022-12-04T05:28:35.622Z,23.38
2022-12-04T05:31:37.065Z,23.50
2022-12-04T05:34:38.591Z,19.95
2022-12-04T05:37:40.634Z,21.60
2022-12-04T05:40:42.039Z,20.67
2022-12-04T05:43:43.471Z,21.02
2022-12-04T05:46:45.112Z,23.15
2022-12-04T05:49:46.715Z,22.40
2022-12-04T05:52:48.155Z,22.10
2022-12-04T05:56:00.473Z,20.85
2022-12-04T05:59:01.970Z,20.17
2022-12-04T06:02:03.645Z,21.88
2022-12-04T06:05:05.522Z,20.77
2022-12-04T06:08:07.060Z,21.20
2022-12-04T06:11:17.531Z,20.10
2022-12-04T06:14:18.995Z,20.95
2022-12-04T06:17:20.446Z,20.63
2022-12-04T06:20:22.013Z,22.15
2022-12-04T06:23:23.527Z,22.45
2022-12-04T06:26:25.517Z,21.45
2022-12-04T06:29:27.527Z,21.85
2022-12-04T06:32:29.134Z,19.15
2022-12-04T06:35:30.571Z,22.60
2022-12-04T06:38:32.545Z,23.08
2022-12-04T06:41:33.988Z,21.05
2022-12-04T06:44:35.392Z,21.17
2022-12-04T06:47:36.819Z,24.92
2022-12-04T06:50:38.457Z,21.08
2022-12-04T06:53:40.268Z,21.13
2022-12-04T06:56:41.730Z,23.58
2022-12-04T06:59:43.183Z,20.35
2022-12-04T07:02:44.693Z,21.42
2022-12-04T07:05:46.182Z,19.40
2022-12-04T07:08:49.395Z,20.38
2022-12-04T07:11:50.850Z,23.77
2022-12-04T07:14:52.311Z,22.27
2022-12-04T07:17:53.776Z,20.83
2022-12-04T07:20:55.527Z,21.17
2022-12-04T07:24:01.469Z,21.08
2022-12-04T07:27:03.762Z,22.45
2022-12-04T07:30:09.912Z,21.70
2022-12-04T07:33:14.086Z,18.50
2022-12-04T07:36:19.403Z,19.17
2022-12-04T07:39:20.881Z,20.52
2022-12-04T07:42:24.317Z,22.83
2022-12-04T07:45:26.139Z,20.35
2022-12-04T07:48:33.053Z,20.77
2022-12-04T07:51:34.848Z,23.38
2022-12-04T07:54:36.471Z,20.55
2022-12-04T07:57:37.975Z,20.27
2022-12-04T08:00:39.484Z,19.77
2022-12-04T08:03:47.663Z,21.25
2022-12-04T08:06:50.162Z,21.02
2022-12-04T08:09:51.611Z,20.38
2022-12-04T08:12:53.054Z,20.92
2022-12-04T08:15:54.516Z,20.38
2022-12-04T08:18:56.719Z,18.50
2022-12-04T08:21:58.151Z,19.55
2022-12-04T08:24:59.615Z,21.17
2022-12-04T08:28:01.104Z,20.27
2022-12-04T08:31:12.765Z,20.27
2022-12-04T08:34:14.350Z,17.00
2022-12-04T08:37:15.971Z,21.60
2022-12-04T08:40:17.512Z,19.92
2022-12-04T08:43:18.934Z,22.75
2022-12-04T08:46:21.637Z,18.23
2022-12-04T08:49:23.207Z,20.40
2022-12-04T08:52:24.720Z,20.90
2022-12-04T08:55:26.144Z,20.95
2022-12-04T08:58:27.943Z,18.73
2022-12-04T09:01:29.657Z,20.35
2022-12-04T09:04:31.261Z,19.25
2022-12-04T09:07:32.775Z,21.08
2022-12-04T09:10:36.327Z,20.65
2022-12-04T09:13:39.159Z,20.90
2022-12-04T09:16:40.607Z,20.48
2022-12-04T09:19:42.069Z,22.02
2022-12-04T09:23:02.814Z,19.17
2022-12-04T09:26:06.432Z,20.67
2022-12-04T09:29:08.115Z,18.55
2022-12-04T09:32:09.556Z,20.80
2022-12-04T09:35:11.100Z,20.30
2022-12-04T09:38:12.527Z,21.05
2022-12-04T09:41:36.007Z,20.98
2022-12-04T09:45:03.183Z,19.63
2022-12-04T09:48:08.279Z,18.52
2022-12-04T09:51:11.660Z,23.42
2022-12-04T09:54:18.065Z,18.55
2022-12-04T09:57:35.739Z,19.83
2022-12-04T10:00:51.096Z,18.17
2022-12-04T10:03:54.338Z,20.13
2022-12-04T10:07:06.266Z,22.27
2022-12-04T10:10:18.517Z,19.58
2022-12-04T10:13:46.908Z,21.60
2022-12-04T10:17:11.784Z,20.80
2022-12-04T10:20:38.068Z,19.13
2022-12-04T10:23:51.836Z,18.50
2022-12-04T10:26:56.307Z,17.55
2022-12-04T10:30:19.171Z,18.85
2022-12-04T10:33:39.355Z,17.27
2022-12-04T10:36:45.365Z,19.42
2022-12-04T10:39:55.826Z,18.13
2022-12-04T10:43:14.455Z,18.23
2022-12-04T10:46:22.204Z,17.70
2022-12-04T10:49:28.810Z,18.23
2022-12-04T10:52:30.261Z,17.08
2022-12-04T10:55:35.242Z,19.02
2022-12-04T10:58:37.092Z,17.75
2022-12-04T11:01:38.595Z,16.02
2022-12-04T11:04:40.342Z,18.52
2022-12-04T11:07:50.057Z,19.55
2022-12-04T11:11:01.695Z,18.40
2022-12-04T11:14:04.372Z,15.65
2022-12-04T11:17:06.580Z,17.27
2022-12-04T11:20:16.710Z,17.23
2022-12-04T11:23:18.521Z,15.55
2022-12-04T11:26:38.431Z,15.25
2022-12-04T11:29:43.975Z,17.10
2022-12-04T11:32:46.459Z,16.98
2022-12-04T11:35:55.043Z,14.10
2022-12-04T11:39:07.087Z,17.77
2022-12-04T11:42:18.928Z,17.40
2022-12-04T11:45:23.030Z,15.98
2022-12-04T11:48:25.298Z,14.27
2022-12-04T11:51:36.517Z,15.30
2022-12-04T11:54:56.366Z,15.55
2022-12-04T11:58:09.961Z,12.77
2022-12-04T12:01:32.681Z,15.13
2022-12-04T12:05:02.142Z,14.73
2022-12-04T12:08:21.023Z,14.55
2022-12-04T12:11:30.282Z,16.45
2022-12-04T12:14:42.599Z,16.88
2022-12-04T12:17:55.407Z,13.05
2022-12-04T12:21:21.887Z,14.07
2022-12-04T12:24:29.164Z,14.57
2022-12-04T12:27:50.031Z,14.77
2022-12-04T12:31:05.604Z,14.60
2022-12-04T12:34:41.771Z,11.93
2022-12-04T12:37:52.311Z,12.65
2022-12-04T12:41:10.785Z,12.45
2022-12-04T12:44:18.439Z,12.00
2022-12-04T12:47:26.082Z,13.77
2022-12-04T12:57:40.730Z,12.55
2022-12-04T13:00:47.597Z,12.73
2022-12-04T13:04:02.377Z,12.82
2022-12-04T13:07:27.624Z,13.48
2022-12-04T13:10:40.138Z,12.27
2022-12-04T13:13:49.342Z,12.43
2022-12-04T13:16:55.326Z,11.43
2022-12-04T13:19:58.382Z,12.48
2022-12-04T13:23:16.472Z,12.55
2022-12-04T13:26:37.636Z,11.50
2022-12-04T13:29:51.142Z,11.57
2022-12-04T13:33:04.730Z,12.07
2022-12-04T13:36:33.815Z,12.70
2022-12-04T13:40:03.004Z,11.52
2022-12-04T13:43:22.314Z,11.57
2022-12-04T13:46:29.870Z,10.38
2022-12-04T13:49:36.482Z,11.60
2022-12-04T13:52:42.205Z,11.45
2022-12-04T13:55:54.678Z,10.18
2022-12-04T13:59:04.810Z,11.70
2022-12-04T14:02:29.789Z,11.57
2022-12-04T14:05:40.233Z,10.93
2022-12-04T14:08:43.471Z,11.18
2022-12-04T14:11:47.203Z,11.43
2022-12-04T14:14:55.789Z,11.07
2022-12-04T14:18:06.439Z,11.77
2022-12-04T14:21:07.953Z,12.25
2022-12-04T14:24:30.526Z,11.40
2022-12-04T14:27:43.150Z,10.85
2022-12-04T14:30:45.064Z,11.05
2022-12-04T14:33:54.998Z,10.82
2022-12-04T14:36:57.713Z,10.70
2022-12-04T14:40:01.173Z,10.45
2022-12-04T14:43:02.739Z,9.25
2022-12-04T14:46:18.823Z,11.85
2022-12-04T14:49:39.474Z,11.18
2022-12-04T14:52:48.883Z,12.02
2022-12-04T14:56:19.331Z,11.35
2022-12-04T14:59:29.503Z,9.50
2022-12-04T15:02:42.738Z,9.38
2022-12-04T15:05:45.085Z,11.05
2022-12-04T15:09:16.184Z,11.43
2022-12-04T15:12:24.100Z,12.02
2022-12-04T15:15:28.242Z,11.85
2022-12-04T15:21:40.811Z,12.13
2022-12-04T15:24:42.208Z,11.43
2022-12-04T15:27:45.204Z,12.85
2022-12-04T15:30:48.704Z,12.48
2022-12-04T15:33:53.186Z,11.85
2022-12-04T15:37:06.556Z,12.75
2022-12-04T15:40:09.004Z,11.45
2022-12-04T15:43:26.636Z,14.15
2022-12-04T15:46:34.429Z,13.80
2022-12-04T15:49:35.931Z,13.35
2022-12-04T15:52:37.863Z,13.90
2022-12-04T15:55:48.625Z,14.45
2022-12-04T15:59:00.737Z,14.68
2022-12-04T16:02:21.375Z,13.25
2022-12-04T16:05:25.785Z,14.73
2022-12-04T16:08:39.187Z,15.32
2022-12-04T16:11:40.656Z,16.65
2022-12-04T16:14:42.051Z,18.92
2022-12-04T16:17:43.542Z,16.85
2022-12-04T16:20:45.025Z,16.13
2022-12-04T16:23:46.778Z,18.00
2022-12-04T16:26:50.540Z,18.05
2022-12-04T16:29:52.853Z,18.13
2022-12-04T16:32:54.310Z,18.33
2022-12-04T16:35:55.756Z,18.85
2022-12-04T16:38:57.149Z,18.38
2022-12-04T16:41:58.632Z,19.27
2022-12-04T16:45:00.223Z,18.20
2022-12-04T16:48:01.850Z,18.98
2022-12-04T16:51:03.445Z,18.08
2022-12-04T16:54:04.963Z,19.83
2022-12-04T16:57:07.957Z,18.33
2022-12-04T17:00:13.535Z,16.60
2022-12-04T17:03:23.419Z,18.02
2022-12-04T17:06:24.926Z,19.80
2022-12-04T17:09:26.396Z,19.60
2022-12-04T17:12:27.867Z,18.20
2022-12-04T17:15:29.382Z,19.52
2022-12-04T17:18:30.843Z,19.83
2022-12-04T17:21:32.254Z,17.90
2022-12-04T17:24:33.845Z,19.52
2022-12-04T17:27:35.625Z,18.63
2022-12-04T17:30:37.284Z,16.80
2022-12-04T17:33:38.699Z,18.08
2022-12-04T17:36:40.094Z,14.73
2022-12-04T17:39:41.542Z,22.30
2022-12-04T17:42:43.373Z,17.40
2022-12-04T17:45:44.865Z,20.10
2022-12-04T17:48:46.256Z,19.75
2022-12-04T17:51:47.719Z,18.83
2022-12-04T17:54:52.014Z,19.80
2022-12-04T18:00:54.886Z,17.08
2022-12-04T18:03:58.881Z,18.63
2022-12-04T18:07:00.332Z,20.55
2022-12-04T18:10:01.785Z,19.20
2022-12-04T18:13:03.240Z,19.67
2022-12-04T18:16:06.988Z,17.83
2022-12-04T18:19:08.455Z,19.35
2022-12-04T18:22:09.903Z,20.50
2022-12-04T18:25:11.378Z,19.70
2022-12-04T18:28:12.789Z,19.67
2022-12-04T18:31:16.480Z,19.48
2022-12-04T18:34:19.176Z,18.08
2022-12-04T18:37:20.620Z,19.45
2022-12-04T18:40:22.112Z,19.40
2022-12-04T18:43:24.566Z,21.10
2022-12-04T18:46:26.329Z,17.35
2022-12-04T18:49:27.815Z,19.42
2022-12-04T18:52:29.284Z,17.23
2022-12-04T18:55:30.741Z,18.63
2022-12-04T18:58:32.201Z,17.23
2022-12-04T19:01:33.752Z,18.25
2022-12-04T19:04:35.269Z,15.60
2022-12-04T19:07:36.839Z,16.75
2022-12-04T19:10:38.323Z,17.42
2022-12-04T19:13:40.026Z,17.42
2022-12-04T19:16:41.875Z,15.82
2022-12-04T19:19:43.363Z,18.95
2022-12-04T19:22:44.848Z,17.25
2022-12-04T19:25:57.623Z,16.38
2022-12-04T19:29:00.497Z,16.40
2022-12-04T19:32:02.045Z,17.55
2022-12-04T19:35:03.743Z,17.00
2022-12-04T19:38:05.220Z,16.15
2022-12-04T19:41:16.014Z,16.63
2022-12-04T19:44:47.204Z,15.98
2022-12-04T19:47:39.273Z,17.73
2022-12-04T19:50:40.688Z,17.02
2022-12-04T19:53:43.351Z,18.33
2022-12-04T19:56:45.623Z,20.27
2022-12-04T19:59:47.118Z,21.35
2022-12-04T20:02:48.605Z,17.92
2022-12-04T20:05:50.092Z,19.02
2022-12-04T20:09:00.409Z,17.83
2022-12-04T20:12:02.094Z,20.42
2022-12-04T20:15:03.770Z,16.20
2022-12-04T20:18:05.880Z,19.83
2022-12-04T20:21:08.073Z,19.55
2022-12-04T20:24:12.184Z,19.88
2022-12-04T20:27:13.683Z,23.63
2022-12-04T20:30:15.207Z,21.23
2022-12-04T20:33:16.693Z,22.35
2022-12-04T20:36:19.410Z,20.15
2022-12-04T20:39:20.936Z,21.95
2022-12-04T20:42:22.486Z,22.15
2022-12-04T20:45:23.951Z,24.17
2022-12-04T20:48:25.640Z,21.20
2022-12-04T20:51:38.819Z,21.98
2022-12-04T20:54:41.768Z,20.25
2022-12-04T20:57:43.479Z,22.98
2022-12-04T21:00:45.064Z,21.00
2022-12-04T21:03:47.131Z,22.17
2022-12-04T21:06:48.731Z,20.33
2022-12-04T21:09:50.159Z,21.30
2022-12-04T21:12:51.565Z,21.50
2022-12-04T21:15:53.200Z,22.55
2022-12-04T21:18:54.663Z,22.33
2022-12-04T21:21:56.127Z,21.38
2022-12-04T21:24:57.608Z,22.55
2022-12-04T21:27:59.035Z,21.27
2022-12-04T21:31:05.075Z,20.15
2022-12-04T21:34:09.969Z,20.20
2022-12-04T21:37:11.383Z,21.63
2022-12-04T21:40:12.884Z,23.35
2022-12-04T21:43:14.407Z,22.23
2022-12-04T21:46:16.024Z,22.13
2022-12-04T21:49:18.833Z,23.23
2022-12-04T21:52:21.206Z,22.00
2022-12-04T21:55:22.688Z,22.83
2022-12-04T21:58:25.945Z,21.90
2022-12-04T22:01:28.208Z,23.50
2022-12-04T22:04:29.610Z,22.08
2022-12-04T22:07:31.036Z,23.90
2022-12-04T22:10:33.485Z,23.70
2022-12-04T22:13:38.644Z,23.90
2022-12-04T22:16:42.696Z,23.88
2022-12-04T22:19:44.726Z,23.13
2022-12-04T22:22:46.208Z,24.40
2022-12-04T22:25:47.750Z,24.35
2022-12-04T22:28:49.295Z,24.00
2022-12-04T22:31:50.819Z,21.02
2022-12-04T22:34:52.285Z,21.75
2022-12-04T22:37:53.705Z,23.33
2022-12-04T22:40:58.486Z,25.15
2022-12-04T22:43:59.996Z,24.15
2022-12-04T22:47:01.507Z,24.58
2022-12-04T22:50:03.828Z,22.88
2022-12-04T22:53:05.279Z,24.08
2022-12-04T22:56:09.140Z,24.23
2022-12-04T22:59:10.569Z,25.23
2022-12-04T23:02:12.048Z,23.25
2022-12-04T23:05:13.571Z,24.30
2022-12-04T23:08:15.118Z,22.70
2022-12-04T23:11:20.100Z,24.98
2022-12-04T23:14:22.404Z,23.48
2022-12-04T23:17:23.893Z,22.10
2022-12-04T23:20:25.340Z,23.80
2022-12-04T23:23:27.034Z,22.63
2022-12-04T23:26:34.270Z,24.27
2022-12-04T23:32:57.150Z,22.77
2022-12-04T23:36:00.647Z,22.08
2022-12-04T23:39:02.062Z,21.63
2022-12-04T23:42:03.798Z,19.55
2022-12-04T23:45:05.555Z,22.90
2022-12-04T23:48:07.042Z,21.02
2022-12-04T23:51:10.335Z,20.15
2022-12-04T23:54:11.772Z,19.83
2022-12-04T23:57:13.220Z,22.35
